createdAt,value
2017-11-30T00:00:29.073Z,93.22
2017-11-30T00:02:58.277Z,93.00
2017-11-30T00:05:26.652Z,93.06
2017-11-30T00:07:54.961Z,93.42
2017-11-30T00:10:23.255Z,93.40
2017-11-30T00:12:51.561Z,93.22
2017-11-30T00:15:19.893Z,92.42
2017-11-30T00:17:48.190Z,93.03
2017-11-30T00:20:16.483Z,94.61
2017-11-30T00:22:44.778Z,94.86
2017-11-30T00:25:13.105Z,94.04
2017-11-30T00:27:41.376Z,93.83
2017-11-30T00:30:09.746Z,93.71
2017-11-30T00:32:38.037Z,93.14
2017-11-30T00:35:06.392Z,93.35
2017-11-30T00:37:35.465Z,92.70
2017-11-30T00:40:04.589Z,92.90
2017-11-30T00:42:50.483Z,92.83
2017-11-30T00:45:18.780Z,92.10
2017-11-30T00:47:47.078Z,92.48
2017-11-30T00:50:15.373Z,92.04
2017-11-30T00:52:44.694Z,91.80
2017-11-30T00:55:12.978Z,92.70
2017-11-30T00:57:41.268Z,93.66
2017-11-30T01:00:09.583Z,93.77
2017-11-30T01:02:37.892Z,95.32
2017-11-30T01:05:06.993Z,96.24
2017-11-30T01:07:35.274Z,94.96
2017-11-30T01:10:03.598Z,94.89
2017-11-30T01:12:31.883Z,96.29
2017-11-30T01:15:00.182Z,95.37
2017-11-30T01:17:29.265Z,94.72
2017-11-30T01:19:57.556Z,94.38
2017-11-30T01:22:26.595Z,94.64
2017-11-30T01:24:54.872Z,94.88
2017-11-30T01:27:23.154Z,93.86
2017-11-30T01:29:51.442Z,94.28
2017-11-30T01:32:19.738Z,91.64
2017-11-30T01:34:49.621Z,92.74
2017-11-30T01:37:17.905Z,93.11
2017-11-30T01:39:46.186Z,93.05
2017-11-30T01:42:14.480Z,93.58
2017-11-30T01:44:42.774Z,93.59
2017-11-30T01:47:11.067Z,92.48
2017-11-30T01:49:39.360Z,92.47
2017-11-30T01:52:07.642Z,92.33
2017-11-30T01:54:35.971Z,92.49
2017-11-30T01:57:04.262Z,96.63
2017-11-30T01:59:32.562Z,95.95
2017-11-30T02:02:00.846Z,94.95
2017-11-30T02:04:29.132Z,94.86
2017-11-30T02:06:57.417Z,94.85
2017-11-30T02:09:25.712Z,93.63
2017-11-30T02:11:53.993Z,92.82
2017-11-30T02:14:22.286Z,93.49
2017-11-30T02:16:50.599Z,92.87
2017-11-30T02:19:18.881Z,92.52
2017-11-30T02:21:47.174Z,92.75
2017-11-30T02:24:15.461Z,94.57
2017-11-30T02:26:43.775Z,96.60
2017-11-30T02:29:12.841Z,97.39
2017-11-30T02:31:42.404Z,97.39
2017-11-30T02:34:10.720Z,96.53
2017-11-30T02:36:40.455Z,96.10
2017-11-30T02:39:08.742Z,95.26
2017-11-30T02:41:37.796Z,94.14
2017-11-30T02:44:06.099Z,94.15
2017-11-30T02:46:35.234Z,94.21
2017-11-30T02:49:03.524Z,94.06
2017-11-30T02:51:31.808Z,92.85
2017-11-30T02:54:00.114Z,92.21
2017-11-30T02:56:28.417Z,91.87
2017-11-30T02:58:56.722Z,90.53
2017-11-30T03:01:25.051Z,91.41
2017-11-30T03:03:54.118Z,91.86
2017-11-30T03:06:22.409Z,91.96
2017-11-30T03:08:50.705Z,91.56
2017-11-30T03:11:18.997Z,90.62
2017-11-30T03:13:47.303Z,90.65
2017-11-30T03:16:15.591Z,90.05
2017-11-30T03:18:43.882Z,89.98
2017-11-30T03:21:12.174Z,89.67
2017-11-30T03:23:40.474Z,89.32
2017-11-30T03:26:09.526Z,89.02
2017-11-30T03:28:37.818Z,89.78
2017-11-30T03:31:06.119Z,89.77
2017-11-30T03:33:34.419Z,90.35
2017-11-30T03:36:02.710Z,90.61
2017-11-30T03:38:30.994Z,93.39
2017-11-30T03:40:59.285Z,92.94
2017-11-30T03:43:27.570Z,92.55
2017-11-30T03:45:55.874Z,94.24
2017-11-30T03:48:24.942Z,95.43
2017-11-30T03:50:53.257Z,95.01
2017-11-30T03:53:21.554Z,93.89
2017-11-30T03:55:49.842Z,93.51
2017-11-30T03:58:18.136Z,93.65
2017-11-30T04:00:46.426Z,93.04
2017-11-30T04:03:14.705Z,93.52
2017-11-30T04:05:42.990Z,96.20
2017-11-30T04:08:11.299Z,96.14
2017-11-30T04:10:39.586Z,94.81
2017-11-30T04:13:07.872Z,95.65
2017-11-30T04:15:36.151Z,95.47
2017-11-30T04:18:04.445Z,94.95
2017-11-30T04:20:34.001Z,94.36
2017-11-30T04:23:02.282Z,94.26
2017-11-30T04:25:30.586Z,93.76
2017-11-30T04:27:58.869Z,93.33
2017-11-30T04:30:27.153Z,94.30
2017-11-30T04:32:55.481Z,93.97
2017-11-30T04:35:23.770Z,93.52
2017-11-30T04:37:52.054Z,93.28
2017-11-30T04:40:20.338Z,95.05
2017-11-30T04:42:48.646Z,95.11
2017-11-30T04:45:16.947Z,95.86
2017-11-30T04:47:45.248Z,95.82
2017-11-30T04:50:13.539Z,95.10
2017-11-30T04:52:41.826Z,94.42
2017-11-30T04:55:10.128Z,93.55
2017-11-30T04:57:38.424Z,92.29
2017-11-30T05:00:06.759Z,90.58
2017-11-30T05:02:35.051Z,90.77
2017-11-30T05:05:03.341Z,90.90
2017-11-30T05:07:31.643Z,91.20
2017-11-30T05:09:59.960Z,91.44
2017-11-30T05:12:28.514Z,91.72
2017-11-30T05:14:57.595Z,91.51
2017-11-30T05:17:25.897Z,92.35
2017-11-30T05:19:54.187Z,92.40
2017-11-30T05:22:22.510Z,92.97
2017-11-30T05:24:50.814Z,94.48
2017-11-30T05:27:19.106Z,94.16
2017-11-30T05:29:47.395Z,94.41
2017-11-30T05:32:15.685Z,94.87
2017-11-30T05:34:43.975Z,95.36
2017-11-30T05:37:12.285Z,96.03
2017-11-30T05:39:41.338Z,95.87
2017-11-30T05:42:09.607Z,95.40
2017-11-30T05:44:37.867Z,95.08
2017-11-30T05:47:06.190Z,95.00
2017-11-30T05:49:34.456Z,94.91
2017-11-30T05:52:02.762Z,95.58
2017-11-30T05:54:31.068Z,93.91
2017-11-30T05:56:59.374Z,94.30
2017-11-30T05:59:27.698Z,93.86
2017-11-30T06:01:55.977Z,92.98
2017-11-30T06:04:24.261Z,94.37
2017-11-30T06:06:52.543Z,95.01
2017-11-30T06:09:20.827Z,94.27
2017-11-30T06:11:49.127Z,94.56
2017-11-30T06:14:17.422Z,93.37
2017-11-30T06:16:46.365Z,92.70
2017-11-30T06:19:14.649Z,92.01
2017-11-30T06:21:42.938Z,91.76
2017-11-30T06:24:11.223Z,91.50
2017-11-30T06:26:40.295Z,91.30
2017-11-30T06:29:08.626Z,90.97
2017-11-30T06:31:36.916Z,91.89
2017-11-30T06:34:05.202Z,91.27
2017-11-30T06:36:33.501Z,90.83
2017-11-30T06:39:01.786Z,90.72
2017-11-30T06:41:30.098Z,90.93
2017-11-30T06:43:58.419Z,90.92
2017-11-30T06:46:26.702Z,90.90
2017-11-30T06:48:54.990Z,90.82
2017-11-30T06:51:23.287Z,91.37
2017-11-30T06:53:51.570Z,90.97
2017-11-30T06:56:20.642Z,90.60
2017-11-30T06:58:48.922Z,91.08
2017-11-30T07:01:17.198Z,91.69
2017-11-30T07:03:45.503Z,91.18
2017-11-30T07:06:13.787Z,90.70
2017-11-30T07:08:42.085Z,89.89
2017-11-30T07:11:10.414Z,90.53
2017-11-30T07:13:38.718Z,90.18
2017-11-30T07:16:06.993Z,90.42
2017-11-30T07:18:35.289Z,89.90
2017-11-30T07:21:04.343Z,90.21
2017-11-30T07:23:32.642Z,90.35
2017-11-30T07:26:00.925Z,90.38
2017-11-30T07:28:29.239Z,90.07
2017-11-30T07:30:57.537Z,89.96
2017-11-30T07:33:25.847Z,90.41
2017-11-30T07:35:54.146Z,89.73
2017-11-30T07:38:23.206Z,89.48
2017-11-30T07:40:52.637Z,88.59
2017-11-30T07:43:20.930Z,89.15
2017-11-30T07:45:49.242Z,88.97
2017-11-30T07:48:17.538Z,88.89
2017-11-30T07:50:45.855Z,89.14
2017-11-30T07:53:14.146Z,88.91
2017-11-30T07:55:42.446Z,88.84
2017-11-30T07:58:10.742Z,89.49
2017-11-30T08:00:39.021Z,88.86
2017-11-30T08:03:07.311Z,89.10
2017-11-30T08:05:35.602Z,89.47
2017-11-30T08:08:03.913Z,89.28
2017-11-30T08:10:32.208Z,89.51
2017-11-30T08:13:00.502Z,88.72
2017-11-30T08:15:28.805Z,88.39
2017-11-30T08:17:57.160Z,88.53
2017-11-30T08:20:25.444Z,89.28
2017-11-30T08:22:53.729Z,88.93
2017-11-30T08:25:22.024Z,88.95
2017-11-30T08:27:51.082Z,88.73
2017-11-30T08:30:19.378Z,88.38
2017-11-30T08:32:47.680Z,88.76
2017-11-30T08:35:15.982Z,88.25
2017-11-30T08:37:44.259Z,86.98
2017-11-30T08:40:12.536Z,86.37
2017-11-30T08:42:40.826Z,86.67
2017-11-30T08:45:09.115Z,86.95
2017-11-30T08:47:37.494Z,86.38
2017-11-30T08:50:05.794Z,86.59
2017-11-30T08:52:34.104Z,87.09
2017-11-30T08:55:02.409Z,87.77
2017-11-30T08:57:30.694Z,87.60
2017-11-30T08:59:58.979Z,86.53
2017-11-30T09:02:27.271Z,86.84
2017-11-30T09:04:55.568Z,87.50
2017-11-30T09:07:24.629Z,87.77
2017-11-30T09:09:52.916Z,87.04
2017-11-30T09:12:21.229Z,87.25
2017-11-30T09:14:49.509Z,86.85
2017-11-30T09:17:17.804Z,86.82
2017-11-30T09:19:46.104Z,87.19
2017-11-30T09:22:14.393Z,87.11
2017-11-30T09:24:42.698Z,88.08
2017-11-30T09:27:10.990Z,87.29
2017-11-30T09:29:39.276Z,88.05
2017-11-30T09:32:07.553Z,87.64
2017-11-30T09:34:35.835Z,88.21
2017-11-30T09:37:05.178Z,88.16
2017-11-30T09:39:33.459Z,87.55
2017-11-30T09:42:01.751Z,88.22
2017-11-30T09:44:30.819Z,88.03
2017-11-30T09:46:59.121Z,88.35
2017-11-30T09:49:29.449Z,87.91
2017-11-30T09:51:57.729Z,88.92
2017-11-30T09:54:26.795Z,88.26
2017-11-30T09:56:55.081Z,87.88
2017-11-30T09:59:23.393Z,88.08
2017-11-30T10:01:51.699Z,88.99
2017-11-30T10:04:19.992Z,88.57
2017-11-30T10:06:48.325Z,88.57
2017-11-30T10:09:16.717Z,88.05
2017-11-30T10:11:44.997Z,89.86
2017-11-30T10:14:13.330Z,89.74
2017-11-30T10:16:41.722Z,90.46
2017-11-30T10:19:11.110Z,90.44
2017-11-30T10:21:40.178Z,89.77
2017-11-30T10:24:08.499Z,90.43
2017-11-30T10:26:37.567Z,91.72
2017-11-30T10:29:05.858Z,91.88
2017-11-30T10:31:34.985Z,91.56
2017-11-30T10:34:03.349Z,90.96
2017-11-30T10:36:31.655Z,90.95
2017-11-30T10:38:59.952Z,91.70
2017-11-30T10:41:28.315Z,90.92
2017-11-30T10:43:56.595Z,89.77
2017-11-30T10:46:25.653Z,89.05
2017-11-30T10:48:54.057Z,90.64
2017-11-30T10:51:22.354Z,91.67
2017-11-30T10:53:50.691Z,90.65
2017-11-30T10:56:19.100Z,91.26
2017-11-30T10:58:47.425Z,90.52
2017-11-30T11:01:15.745Z,89.40
2017-11-30T11:03:44.059Z,88.46
2017-11-30T11:06:12.369Z,89.06
2017-11-30T11:08:40.714Z,90.16
2017-11-30T11:11:09.007Z,89.75
2017-11-30T11:13:37.299Z,90.56
2017-11-30T11:16:05.586Z,91.02
2017-11-30T11:18:34.175Z,90.69
2017-11-30T11:21:02.487Z,89.90
2017-11-30T11:23:32.113Z,89.76
2017-11-30T11:26:00.406Z,90.13
2017-11-30T11:28:29.461Z,90.65
2017-11-30T11:30:58.130Z,90.82
2017-11-30T11:33:26.474Z,90.98
2017-11-30T11:35:55.529Z,91.44
2017-11-30T11:38:23.819Z,90.91
2017-11-30T11:40:52.101Z,90.00
2017-11-30T11:43:20.526Z,89.77
2017-11-30T11:45:48.933Z,89.65
2017-11-30T11:48:17.591Z,88.55
2017-11-30T11:50:46.035Z,89.02
2017-11-30T11:53:14.624Z,88.63
2017-11-30T11:55:43.401Z,88.33
2017-11-30T11:58:14.046Z,89.69
2017-11-30T12:00:43.437Z,88.67
2017-11-30T12:03:12.072Z,88.44
2017-11-30T12:05:40.388Z,89.05
2017-11-30T12:08:08.677Z,87.90
2017-11-30T12:10:37.760Z,88.42
2017-11-30T12:13:06.067Z,88.27
2017-11-30T12:15:34.539Z,88.81
2017-11-30T12:18:03.010Z,89.88
2017-11-30T12:20:31.613Z,87.97
2017-11-30T12:23:01.087Z,88.41
2017-11-30T12:25:31.393Z,88.47
2017-11-30T12:27:59.690Z,88.30
2017-11-30T12:30:28.738Z,88.79
2017-11-30T12:32:57.045Z,87.25
2017-11-30T12:35:25.345Z,86.86
2017-11-30T12:37:53.635Z,87.45
2017-11-30T12:40:21.913Z,87.13
2017-11-30T12:42:50.211Z,86.96
2017-11-30T12:45:18.502Z,86.70
2017-11-30T12:47:46.782Z,87.80
2017-11-30T12:50:15.065Z,88.23
2017-11-30T12:52:43.349Z,88.26
2017-11-30T12:55:11.629Z,87.97
2017-11-30T12:57:39.927Z,87.77
2017-11-30T13:00:08.988Z,88.28
2017-11-30T13:02:37.305Z,87.33
2017-11-30T13:05:06.361Z,87.74
2017-11-30T13:07:34.663Z,88.18
2017-11-30T13:10:02.948Z,88.73
2017-11-30T13:12:31.287Z,88.15
2017-11-30T13:14:59.564Z,88.58
2017-11-30T13:17:27.859Z,88.20
2017-11-30T13:19:56.153Z,89.10
2017-11-30T13:22:24.488Z,89.06
2017-11-30T13:24:52.785Z,89.26
2017-11-30T13:27:21.072Z,89.23
2017-11-30T13:29:49.364Z,89.18
2017-11-30T13:32:17.668Z,89.21
2017-11-30T13:34:45.948Z,89.21
2017-11-30T13:37:14.241Z,88.92
2017-11-30T13:39:42.524Z,88.67
2017-11-30T13:42:10.816Z,88.06
2017-11-30T13:44:39.144Z,88.56
2017-11-30T13:47:07.997Z,88.18
2017-11-30T13:49:36.315Z,88.54
2017-11-30T13:52:04.580Z,89.67
2017-11-30T13:54:32.862Z,89.32
2017-11-30T13:57:01.156Z,89.13
2017-11-30T13:59:29.453Z,90.21
2017-11-30T14:01:57.737Z,89.91
2017-11-30T14:04:26.053Z,90.74
2017-11-30T14:06:54.352Z,90.53
2017-11-30T14:09:22.653Z,90.58
2017-11-30T14:11:50.956Z,90.41
2017-11-30T14:14:19.270Z,90.48
2017-11-30T14:16:47.610Z,90.16
2017-11-30T14:19:15.852Z,90.21
2017-11-30T14:21:44.140Z,90.90
2017-11-30T14:24:13.222Z,91.07
2017-11-30T14:26:41.504Z,90.38
2017-11-30T14:29:09.788Z,90.46
2017-11-30T14:31:38.081Z,91.02
2017-11-30T14:34:06.377Z,91.46
2017-11-30T14:36:35.325Z,90.92
2017-11-30T14:39:03.609Z,91.08
2017-11-30T14:41:31.897Z,91.51
2017-11-30T14:44:00.205Z,92.27
2017-11-30T14:46:29.257Z,92.57
2017-11-30T14:48:57.540Z,93.19
2017-11-30T14:51:25.822Z,93.20
2017-11-30T14:53:54.141Z,93.24
2017-11-30T14:56:22.432Z,93.22
2017-11-30T14:58:50.725Z,93.25
2017-11-30T15:01:19.024Z,93.63
2017-11-30T15:03:47.317Z,93.88
2017-11-30T15:06:15.605Z,93.82
2017-11-30T15:08:44.669Z,93.89
2017-11-30T15:11:13.522Z,93.60
2017-11-30T15:13:41.870Z,93.76
2017-11-30T15:16:10.142Z,93.48
2017-11-30T15:18:38.468Z,93.21
2017-11-30T15:21:06.758Z,93.70
2017-11-30T15:23:35.049Z,94.36
2017-11-30T15:26:04.217Z,94.36
2017-11-30T15:28:32.534Z,94.16
2017-11-30T15:31:00.826Z,94.57
2017-11-30T15:33:29.115Z,94.03
2017-11-30T15:35:57.436Z,94.04
2017-11-30T15:38:25.757Z,93.50
2017-11-30T15:40:54.809Z,92.97
2017-11-30T15:43:23.101Z,92.80
2017-11-30T15:45:51.398Z,93.48
2017-11-30T15:48:19.680Z,93.05
2017-11-30T15:50:48.748Z,93.15
2017-11-30T15:53:17.047Z,92.81
2017-11-30T15:55:45.328Z,92.62
2017-11-30T15:58:14.389Z,92.05
2017-11-30T16:00:42.688Z,92.39
2017-11-30T16:03:10.970Z,92.03
2017-11-30T16:05:40.144Z,92.18
2017-11-30T16:08:08.709Z,92.10
2017-11-30T16:10:36.993Z,93.02
2017-11-30T16:13:06.069Z,92.00
2017-11-30T16:15:34.357Z,92.97
2017-11-30T16:18:02.666Z,93.54
2017-11-30T16:20:30.957Z,93.02
2017-11-30T16:23:00.021Z,93.59
2017-11-30T16:25:28.310Z,93.04
2017-11-30T16:27:56.623Z,93.86
2017-11-30T16:30:24.909Z,94.94
2017-11-30T16:32:53.231Z,94.46
2017-11-30T16:35:21.529Z,94.58
2017-11-30T16:37:49.812Z,94.52
2017-11-30T16:40:18.145Z,94.67
2017-11-30T16:42:46.428Z,95.04
2017-11-30T16:45:14.743Z,94.94
2017-11-30T16:47:45.032Z,95.09
2017-11-30T16:50:13.317Z,95.47
2017-11-30T16:52:41.597Z,95.74
2017-11-30T16:55:09.872Z,95.70
2017-11-30T16:57:38.149Z,95.16
2017-11-30T17:00:06.437Z,95.21
2017-11-30T17:02:34.724Z,95.28
2017-11-30T17:05:03.013Z,95.02
2017-11-30T17:07:31.356Z,94.76
2017-11-30T17:09:59.661Z,93.53
2017-11-30T17:12:27.949Z,93.95
2017-11-30T17:14:56.244Z,94.71
2017-11-30T17:17:24.525Z,94.60
2017-11-30T17:19:52.806Z,94.56
2017-11-30T17:22:21.116Z,94.06
2017-11-30T17:24:49.446Z,94.28
2017-11-30T17:27:17.736Z,94.31
2017-11-30T17:29:46.016Z,93.37
2017-11-30T17:32:14.732Z,93.26
2017-11-30T17:34:43.021Z,93.54
2017-11-30T17:37:11.312Z,93.64
2017-11-30T17:39:40.366Z,93.31
2017-11-30T17:42:08.671Z,93.38
2017-11-30T17:44:36.966Z,94.62
2017-11-30T17:47:05.358Z,93.92
2017-11-30T17:49:33.707Z,93.87
2017-11-30T17:52:02.477Z,93.94
2017-11-30T17:54:30.784Z,94.27
2017-11-30T17:56:59.185Z,94.44
2017-11-30T17:59:27.496Z,94.53
2017-11-30T18:01:55.780Z,94.79
2017-11-30T18:04:24.090Z,94.62
2017-11-30T18:06:53.197Z,94.59
2017-11-30T18:09:21.517Z,94.78
2017-11-30T18:11:49.949Z,94.75
2017-11-30T18:14:18.258Z,95.06
2017-11-30T18:16:46.561Z,95.39
2017-11-30T18:19:14.850Z,94.28
2017-11-30T18:21:43.196Z,95.10
2017-11-30T18:24:11.514Z,95.61
2017-11-30T18:26:40.897Z,95.21
2017-11-30T18:29:10.058Z,94.74
2017-11-30T18:31:38.823Z,94.11
2017-11-30T18:34:08.505Z,93.41
2017-11-30T18:36:37.979Z,93.28
2017-11-30T18:39:07.189Z,94.07
2017-11-30T18:41:36.741Z,94.32
2017-11-30T18:44:05.884Z,94.24
2017-11-30T18:46:35.720Z,94.10
2017-11-30T18:49:05.416Z,93.81
2017-11-30T18:51:34.916Z,94.06
2017-11-30T18:54:04.580Z,93.94
2017-11-30T18:56:34.993Z,93.28
2017-11-30T18:59:04.564Z,93.22
2017-11-30T19:01:34.769Z,92.92
2017-11-30T19:04:04.750Z,93.16
2017-11-30T19:06:35.243Z,93.87
2017-11-30T19:09:05.414Z,94.83
2017-11-30T19:11:35.233Z,95.01
2017-11-30T19:14:05.051Z,94.74
2017-11-30T19:16:34.899Z,94.38
2017-11-30T19:19:04.679Z,93.75
2017-11-30T19:21:34.733Z,94.08
2017-11-30T19:24:04.574Z,93.41
2017-11-30T19:26:34.563Z,93.31
2017-11-30T19:29:04.399Z,93.35
2017-11-30T19:31:34.246Z,92.87
2017-11-30T19:34:04.075Z,92.79
2017-11-30T19:36:34.003Z,92.88
2017-11-30T19:39:04.107Z,94.28
2017-11-30T19:41:34.103Z,94.43
2017-11-30T19:44:03.990Z,94.72
2017-11-30T19:46:36.403Z,95.05
2017-11-30T19:49:06.294Z,95.33
2017-11-30T19:51:36.150Z,95.11
2017-11-30T19:54:06.015Z,94.74
2017-11-30T19:56:35.832Z,94.83
2017-11-30T19:59:05.664Z,94.50
2017-11-30T20:01:35.551Z,94.43
2017-11-30T20:04:06.172Z,93.85
2017-11-30T20:06:35.994Z,94.67
2017-11-30T20:09:06.748Z,94.73
2017-11-30T20:11:36.622Z,94.49
2017-11-30T20:14:07.266Z,94.26
2017-11-30T20:16:38.920Z,94.47
2017-11-30T20:19:08.791Z,94.69
2017-11-30T20:21:38.536Z,95.89
2017-11-30T20:24:08.570Z,96.99
2017-11-30T20:26:39.240Z,97.54
2017-11-30T20:29:09.076Z,96.52
2017-11-30T20:31:38.831Z,96.26
2017-11-30T20:34:09.463Z,96.11
2017-11-30T20:36:39.956Z,97.34
2017-11-30T20:39:09.818Z,97.73
2017-11-30T20:41:39.696Z,97.51
2017-11-30T20:44:10.233Z,97.03
2017-11-30T20:46:40.760Z,95.87
2017-11-30T20:49:11.380Z,96.41
2017-11-30T20:51:42.224Z,95.66
2017-11-30T20:54:12.007Z,95.60
2017-11-30T20:56:42.626Z,94.72
2017-11-30T20:59:13.406Z,95.32
2017-11-30T21:01:44.140Z,95.27
2017-11-30T21:04:14.112Z,95.01
2017-11-30T21:06:45.021Z,94.38
2017-11-30T21:09:14.924Z,95.30
2017-11-30T21:11:45.904Z,95.38
2017-11-30T21:14:15.822Z,95.67
2017-11-30T21:16:46.181Z,95.92
2017-11-30T21:19:16.083Z,96.71
2017-11-30T21:21:45.801Z,96.80
2017-11-30T21:24:16.696Z,97.42
2017-11-30T21:26:46.540Z,97.61
2017-11-30T21:29:16.285Z,97.21
2017-11-30T21:31:46.044Z,96.45
2017-11-30T21:34:16.225Z,95.84
2017-11-30T21:36:46.436Z,96.47
2017-11-30T21:39:16.914Z,97.33
2017-11-30T21:41:46.738Z,97.15
2017-11-30T21:44:16.262Z,97.49
2017-11-30T21:46:46.323Z,97.54
2017-11-30T21:49:15.306Z,97.95
2017-11-30T21:51:44.203Z,96.94
2017-11-30T21:54:12.907Z,96.86
2017-11-30T21:56:42.827Z,95.73
2017-11-30T21:59:11.467Z,95.68
2017-11-30T22:01:39.847Z,94.52
2017-11-30T22:04:08.362Z,94.49
2017-11-30T22:06:36.674Z,94.25
2017-11-30T22:09:04.963Z,93.73
2017-11-30T22:11:33.260Z,94.15
2017-11-30T22:14:02.782Z,93.76
2017-11-30T22:16:31.089Z,94.13
2017-11-30T22:18:59.367Z,94.23
2017-11-30T22:21:27.668Z,96.09
2017-11-30T22:23:59.010Z,97.15
2017-11-30T22:26:33.504Z,97.94
2017-11-30T22:29:01.925Z,99.14
2017-11-30T22:31:30.581Z,99.56
2017-11-30T22:33:58.971Z,100.00
2017-11-30T22:36:27.405Z,100.00
2017-11-30T22:38:55.872Z,99.24
2017-11-30T22:41:24.501Z,99.64
2017-11-30T22:43:53.822Z,100.00
2017-11-30T22:46:22.597Z,99.46
2017-11-30T22:48:50.968Z,98.47
2017-11-30T22:51:19.349Z,98.05
2017-11-30T22:53:47.693Z,97.26
2017-11-30T22:56:17.142Z,98.70
2017-11-30T22:58:45.601Z,100.00
2017-11-30T23:01:14.281Z,99.81
2017-11-30T23:03:42.831Z,99.70
2017-11-30T23:06:11.158Z,100.00
2017-11-30T23:08:40.330Z,100.00
2017-11-30T23:11:09.541Z,100.00
2017-11-30T23:13:39.031Z,99.90
2017-11-30T23:16:07.722Z,98.56
2017-11-30T23:18:37.233Z,97.80
2017-11-30T23:21:05.801Z,97.05
2017-11-30T23:23:34.164Z,96.03
2017-11-30T23:26:02.601Z,95.47
2017-11-30T23:28:32.842Z,94.90
2017-11-30T23:31:01.193Z,94.77
2017-11-30T23:33:29.586Z,94.36
2017-11-30T23:35:58.650Z,93.42
2017-11-30T23:38:26.969Z,93.43
2017-11-30T23:40:55.261Z,93.60
2017-11-30T23:43:23.563Z,93.53
2017-11-30T23:45:51.854Z,93.51
2017-11-30T23:48:20.173Z,92.88
2017-11-30T23:50:48.494Z,93.37
2017-11-30T23:53:16.778Z,94.32
2017-11-30T23:55:45.114Z,96.39
2017-11-30T23:58:13.749Z,97.68
